createdAt,value
2022-12-18T00:00:42.735Z,87.91
2022-12-18T00:04:55.746Z,88.20
2022-12-18T00:08:56.838Z,87.95
2022-12-18T00:12:56.097Z,88.02
2022-12-18T00:17:09.041Z,87.98
2022-12-18T00:21:09.674Z,87.79
2022-12-18T00:25:09.528Z,87.81
2022-12-18T00:29:11.800Z,88.09
2022-12-18T00:33:10.790Z,88.20
2022-12-18T00:37:10.020Z,88.12
2022-12-18T00:41:10.289Z,88.33
2022-12-18T00:45:13.014Z,88.06
2022-12-18T00:49:13.811Z,88.31
2022-12-18T00:53:26.379Z,88.23
2022-12-18T00:57:25.953Z,88.05
2022-12-18T01:01:25.377Z,88.52
2022-12-18T01:05:24.505Z,88.80
2022-12-18T01:09:24.455Z,88.95
2022-12-18T01:13:39.650Z,88.86
2022-12-18T01:17:39.168Z,88.76
2022-12-18T01:21:38.531Z,88.78
2022-12-18T01:25:38.094Z,88.58
2022-12-18T01:29:37.135Z,88.32
2022-12-18T01:33:50.950Z,88.50
2022-12-18T01:37:49.931Z,88.56
2022-12-18T01:42:16.131Z,88.88
2022-12-18T01:46:16.497Z,89.02
2022-12-18T01:50:24.875Z,89.20
2022-12-18T01:54:26.213Z,89.26
2022-12-18T01:58:58.435Z,89.28
2022-12-18T02:02:57.917Z,89.12
2022-12-18T02:07:16.282Z,89.21
2022-12-18T02:11:23.689Z,89.08
2022-12-18T02:15:28.170Z,89.28
2022-12-18T02:19:45.207Z,89.23
2022-12-18T02:24:08.729Z,89.01
2022-12-18T02:28:12.909Z,88.88
2022-12-18T02:32:21.352Z,89.08
2022-12-18T02:35:50.167Z,89.03
2022-12-18T02:39:50.449Z,89.26
2022-12-18T02:43:50.528Z,89.25
2022-12-18T02:47:50.944Z,88.98
2022-12-18T02:51:53.772Z,88.89
2022-12-18T02:56:05.570Z,89.11
2022-12-18T03:00:05.385Z,89.12
2022-12-18T03:04:09.088Z,89.11
2022-12-18T03:08:11.527Z,89.42
2022-12-18T03:12:30.357Z,89.42
2022-12-18T03:16:32.342Z,89.62
2022-12-18T03:20:35.390Z,89.60
2022-12-18T03:24:34.856Z,89.75
2022-12-18T03:28:37.740Z,89.75
2022-12-18T03:33:06.758Z,89.90
2022-12-18T03:36:34.018Z,89.71
2022-12-18T03:39:52.813Z,89.71
2022-12-18T03:43:52.025Z,89.60
2022-12-18T03:47:55.280Z,89.71
2022-12-18T03:52:03.397Z,89.58
2022-12-18T03:56:17.667Z,89.74
2022-12-18T04:00:36.140Z,89.79
2022-12-18T04:03:55.223Z,90.02
2022-12-18T04:08:09.088Z,89.45
2022-12-18T04:12:10.595Z,89.17
2022-12-18T04:16:28.953Z,89.12
2022-12-18T04:19:47.035Z,89.02
2022-12-18T04:24:00.217Z,89.23
2022-12-18T04:28:00.774Z,89.20
2022-12-18T04:32:00.132Z,89.28
2022-12-18T04:35:59.950Z,89.58
2022-12-18T04:39:59.351Z,89.65
2022-12-18T04:44:23.116Z,89.68
2022-12-18T04:47:41.990Z,89.80
2022-12-18T04:51:40.889Z,89.32
2022-12-18T04:56:03.452Z,89.60
2022-12-18T04:59:17.737Z,89.27
2022-12-18T05:03:17.329Z,89.41
2022-12-18T05:07:30.318Z,89.09
2022-12-18T05:11:29.333Z,89.07
2022-12-18T05:15:31.272Z,89.31
2022-12-18T05:19:30.176Z,89.34
2022-12-18T05:23:48.011Z,89.24
2022-12-18T05:27:07.174Z,89.21
2022-12-18T05:31:06.862Z,89.28
2022-12-18T05:35:25.035Z,88.98
2022-12-18T05:38:43.730Z,89.05
2022-12-18T05:42:42.711Z,88.79
2022-12-18T05:46:41.764Z,88.23
2022-12-18T05:50:42.519Z,88.07
2022-12-18T05:54:41.593Z,87.65
2022-12-18T05:58:41.014Z,87.62
2022-12-18T06:02:40.792Z,87.13
2022-12-18T06:06:40.253Z,87.10
2022-12-18T06:10:39.258Z,87.15
2022-12-18T06:14:38.109Z,86.87
2022-12-18T06:18:36.827Z,86.77
2022-12-18T06:22:36.424Z,86.72
2022-12-18T06:26:38.248Z,86.38
2022-12-18T06:30:14.435Z,86.43
2022-12-18T06:34:14.442Z,86.30
2022-12-18T06:38:13.629Z,86.46
2022-12-18T06:42:13.193Z,86.37
2022-12-18T06:46:13.116Z,86.21
2022-12-18T06:50:12.861Z,85.97
2022-12-18T06:54:11.974Z,86.09
2022-12-18T06:58:11.244Z,86.02
2022-12-18T07:02:14.477Z,85.95
2022-12-18T07:06:27.707Z,85.94
2022-12-18T07:10:27.542Z,85.99
2022-12-18T07:14:27.081Z,86.42
2022-12-18T07:18:26.614Z,85.84
2022-12-18T07:22:27.076Z,85.40
2022-12-18T07:26:47.674Z,85.40
2022-12-18T07:30:04.254Z,85.50
2022-12-18T07:34:03.743Z,85.06
2022-12-18T07:38:03.157Z,85.39
2022-12-18T07:42:21.205Z,85.32
2022-12-18T07:46:21.602Z,85.35
2022-12-18T07:50:21.667Z,85.48
2022-12-18T07:53:58.807Z,85.74
2022-12-18T07:58:12.623Z,85.73
2022-12-18T08:02:12.453Z,85.47
2022-12-18T08:06:12.208Z,85.12
2022-12-18T08:10:12.154Z,84.78
2022-12-18T08:14:30.330Z,84.28
2022-12-18T08:17:49.354Z,83.64
2022-12-18T08:21:49.419Z,83.50
2022-12-18T08:25:49.377Z,83.31
2022-12-18T08:29:48.732Z,82.51
2022-12-18T08:33:49.316Z,82.65
2022-12-18T08:37:49.427Z,82.50
2022-12-18T08:42:10.411Z,82.97
2022-12-18T08:46:11.154Z,82.85
2022-12-18T08:50:13.747Z,81.68
2022-12-18T08:54:15.086Z,81.26
2022-12-18T08:58:14.137Z,80.73
2022-12-18T09:02:13.575Z,81.10
2022-12-18T09:06:17.427Z,80.87
2022-12-18T09:10:43.377Z,79.80
2022-12-18T09:13:55.016Z,78.27
2022-12-18T09:17:55.192Z,77.73
2022-12-18T09:21:54.706Z,76.70
2022-12-18T09:25:59.552Z,75.81
2022-12-18T09:29:58.768Z,75.41
2022-12-18T09:33:58.537Z,74.30
2022-12-18T09:37:57.787Z,73.81
2022-12-18T09:41:59.371Z,73.61
2022-12-18T09:46:00.469Z,73.11
2022-12-18T09:50:00.839Z,73.13
2022-12-18T09:54:03.086Z,73.25
2022-12-18T09:58:07.408Z,72.98
2022-12-18T10:02:15.278Z,73.20
2022-12-18T10:06:16.851Z,73.53
2022-12-18T10:10:35.187Z,73.37
2022-12-18T10:14:37.326Z,73.52
2022-12-18T10:18:55.748Z,73.42
2022-12-18T10:23:14.352Z,73.41
2022-12-18T10:26:33.747Z,73.15
2022-12-18T10:30:33.374Z,73.51
2022-12-18T10:34:32.542Z,73.65
2022-12-18T10:38:33.015Z,74.39
2022-12-18T10:43:10.131Z,74.17
2022-12-18T10:46:09.972Z,73.98
2022-12-18T10:50:19.707Z,74.25
2022-12-18T10:54:22.370Z,74.47
2022-12-18T10:58:41.233Z,73.89
2022-12-18T11:02:00.209Z,72.97
2022-12-18T11:06:19.961Z,72.51
2022-12-18T11:10:20.169Z,73.48
2022-12-18T11:14:23.547Z,74.09
2022-12-18T11:18:36.345Z,74.04
2022-12-18T11:22:37.414Z,73.60
2022-12-18T11:26:37.485Z,73.65
2022-12-18T11:30:37.812Z,73.71
2022-12-18T11:34:37.444Z,73.26
2022-12-18T11:38:38.901Z,73.55
2022-12-18T11:42:57.509Z,73.61
2022-12-18T11:47:01.704Z,73.92
2022-12-18T11:51:03.336Z,73.95
2022-12-18T11:55:06.381Z,74.05
2022-12-18T11:59:26.845Z,73.24
2022-12-18T12:03:45.730Z,73.38
2022-12-18T12:08:04.328Z,73.28
2022-12-18T12:12:16.150Z,73.67
2022-12-18T12:16:15.371Z,73.80
2022-12-18T12:20:23.406Z,73.27
2022-12-18T12:24:35.517Z,73.39
2022-12-18T12:28:48.806Z,73.80
2022-12-18T12:33:06.849Z,73.77
2022-12-18T12:37:25.652Z,73.02
2022-12-18T12:41:46.545Z,73.30
2022-12-18T12:46:07.661Z,72.61
2022-12-18T12:49:26.548Z,72.20
2022-12-18T12:53:31.986Z,72.63
2022-12-18T12:58:05.192Z,72.44
2022-12-18T13:02:25.561Z,72.52
2022-12-18T13:06:25.778Z,72.46
2022-12-18T13:10:27.550Z,72.16
2022-12-18T13:14:33.276Z,71.66
2022-12-18T13:18:33.587Z,71.49
2022-12-18T13:22:38.209Z,70.76
2022-12-18T13:26:51.345Z,71.12
2022-12-18T13:30:50.256Z,71.34
2022-12-18T13:35:22.835Z,71.73
2022-12-18T13:38:32.450Z,72.06
2022-12-18T13:42:58.563Z,71.78
2022-12-18T13:46:58.463Z,71.22
2022-12-18T13:51:04.585Z,71.13
2022-12-18T13:55:08.280Z,71.94
2022-12-18T13:59:26.996Z,72.16
2022-12-18T14:03:29.191Z,72.75
2022-12-18T14:07:34.550Z,73.05
2022-12-18T14:16:07.397Z,73.11
2022-12-18T14:20:14.217Z,73.79
2022-12-18T14:24:32.683Z,74.07
2022-12-18T14:27:53.005Z,73.78
2022-12-18T14:32:18.649Z,74.03
2022-12-18T14:36:26.046Z,74.02
2022-12-18T14:40:25.796Z,74.39
2022-12-18T14:44:25.445Z,74.48
2022-12-18T14:48:25.586Z,74.32
2022-12-18T14:52:30.985Z,72.60
2022-12-18T14:56:05.122Z,72.31
2022-12-18T15:04:36.792Z,73.12
2022-12-18T15:08:38.987Z,73.45
2022-12-18T15:12:26.766Z,73.60
2022-12-18T15:16:26.301Z,74.03
2022-12-18T15:20:25.535Z,74.25
2022-12-18T15:24:28.289Z,74.16
2022-12-18T15:28:33.158Z,73.72
2022-12-18T15:32:33.403Z,73.66
2022-12-18T15:36:37.660Z,73.62
2022-12-18T15:40:37.157Z,74.08
2022-12-18T15:44:36.766Z,74.19
2022-12-18T15:48:40.286Z,73.66
2022-12-18T15:52:44.774Z,73.37
2022-12-18T15:57:03.169Z,74.07
2022-12-18T16:01:02.807Z,73.80
2022-12-18T16:05:02.497Z,74.06
2022-12-18T16:09:02.486Z,74.51
2022-12-18T16:13:02.295Z,74.59
2022-12-18T16:17:03.153Z,75.04
2022-12-18T16:21:02.500Z,74.97
2022-12-18T16:25:03.461Z,75.02
2022-12-18T16:28:45.187Z,75.03
2022-12-18T16:32:47.636Z,75.28
2022-12-18T16:36:49.280Z,75.05
2022-12-18T16:40:25.970Z,75.10
2022-12-18T16:44:25.262Z,75.02
2022-12-18T16:48:25.030Z,74.71
2022-12-18T16:52:25.186Z,74.65
2022-12-18T16:56:24.827Z,74.21
2022-12-18T17:00:24.166Z,73.84
2022-12-18T17:04:23.669Z,73.78
2022-12-18T17:08:22.845Z,73.98
2022-12-18T17:12:22.829Z,74.28
2022-12-18T17:16:22.587Z,74.39
2022-12-18T17:20:22.592Z,74.36
2022-12-18T17:24:22.694Z,75.11
2022-12-18T17:28:35.870Z,75.87
2022-12-18T17:32:34.738Z,75.50
2022-12-18T17:36:34.475Z,75.15
2022-12-18T17:40:34.038Z,75.39
2022-12-18T17:44:34.666Z,75.47
2022-12-18T17:48:57.226Z,75.11
2022-12-18T17:52:11.812Z,74.53
2022-12-18T17:56:16.073Z,74.76
2022-12-18T18:00:34.623Z,75.14
2022-12-18T18:03:56.302Z,75.29
2022-12-18T18:07:57.606Z,75.66
2022-12-18T18:12:15.805Z,76.19
2022-12-18T18:16:15.832Z,76.74
2022-12-18T18:20:22.306Z,76.82
2022-12-18T18:24:23.765Z,75.86
2022-12-18T18:28:23.147Z,75.66
2022-12-18T18:32:23.135Z,75.98
2022-12-18T18:36:22.770Z,76.95
2022-12-18T18:40:22.103Z,76.25
2022-12-18T18:44:25.739Z,75.79
2022-12-18T18:48:27.290Z,75.76
2022-12-18T18:52:29.453Z,75.29
2022-12-18T19:00:56.600Z,76.14
2022-12-18T19:04:58.346Z,76.19
2022-12-18T19:08:36.275Z,75.72
2022-12-18T19:12:54.716Z,76.16
2022-12-18T19:16:54.496Z,76.08
2022-12-18T19:20:59.727Z,75.40
2022-12-18T19:25:18.176Z,75.31
2022-12-18T19:28:37.224Z,75.39
2022-12-18T19:32:36.700Z,75.36
2022-12-18T19:36:37.521Z,75.55
2022-12-18T19:40:41.082Z,76.33
2022-12-18T19:44:41.033Z,75.95
2022-12-18T19:48:41.684Z,75.48
2022-12-18T19:52:41.652Z,75.60
2022-12-18T19:56:43.625Z,75.87
2022-12-18T20:00:47.199Z,75.64
2022-12-18T20:04:47.474Z,75.54
2022-12-18T20:08:47.321Z,75.31
2022-12-18T20:12:46.487Z,74.81
2022-12-18T20:17:00.415Z,75.38
2022-12-18T20:21:00.384Z,75.44
2022-12-18T20:25:15.396Z,75.81
2022-12-18T20:29:14.761Z,75.79
2022-12-18T20:33:14.547Z,76.26
2022-12-18T20:37:13.977Z,75.84
2022-12-18T20:41:17.815Z,75.53
2022-12-18T20:45:36.894Z,75.69
2022-12-18T20:48:55.174Z,75.82
2022-12-18T20:52:54.587Z,75.87
2022-12-18T20:56:54.299Z,76.28
2022-12-18T21:01:26.292Z,76.44
2022-12-18T21:05:39.955Z,76.07
2022-12-18T21:09:39.507Z,76.00
2022-12-18T21:13:38.987Z,76.10
2022-12-18T21:17:52.011Z,76.04
2022-12-18T21:21:56.695Z,76.17
2022-12-18T21:25:29.936Z,76.19
2022-12-18T21:29:29.397Z,75.97
2022-12-18T21:33:28.786Z,76.04
2022-12-18T21:37:27.806Z,75.86
2022-12-18T21:41:46.614Z,76.31
2022-12-18T21:45:46.514Z,76.44
2022-12-18T21:50:04.573Z,76.85
2022-12-18T21:53:23.425Z,76.64
2022-12-18T21:57:22.772Z,77.03
2022-12-18T22:01:22.290Z,76.37
2022-12-18T22:05:22.074Z,76.67
2022-12-18T22:09:53.712Z,76.11
2022-12-18T22:13:12.847Z,76.25
2022-12-18T22:17:11.827Z,75.79
2022-12-18T22:21:29.369Z,75.74
2022-12-18T22:25:29.050Z,76.27
2022-12-18T22:29:46.662Z,76.27
2022-12-18T22:33:45.897Z,76.95
2022-12-18T22:37:47.125Z,77.10
2022-12-18T22:41:46.693Z,75.51
2022-12-18T22:45:47.667Z,75.78
2022-12-18T22:49:47.082Z,75.63
2022-12-18T22:53:46.716Z,75.77
2022-12-18T22:57:49.133Z,76.70
2022-12-18T23:01:49.509Z,77.38
2022-12-18T23:05:50.255Z,77.57
2022-12-18T23:09:51.345Z,77.75
2022-12-18T23:14:17.971Z,76.81
2022-12-18T23:17:37.006Z,76.69
2022-12-18T23:21:36.738Z,77.09
2022-12-18T23:25:36.297Z,77.31
2022-12-18T23:29:35.050Z,76.87
2022-12-18T23:33:34.375Z,76.86
2022-12-18T23:37:57.611Z,76.75
2022-12-18T23:42:06.935Z,77.20
2022-12-18T23:46:12.992Z,76.35
2022-12-18T23:50:29.516Z,75.89
2022-12-18T23:54:32.883Z,76.36
2022-12-18T23:58:07.945Z,76.53
